Terminal Aerodrome Forecast
Issued by NWS

Home | Current Version | Previous Version | Text Only | Print | Product List | Glossary On
Versions: 1 2 3 4 5 6 7 8 9 10 11 12 13 14 15 16 17 18
000
FTUS46 KMTR 020503 AAA
TAFOAK
TAF AMD
KOAK 020503Z 0205/0306 28014KT P6SM OVC010
     FM021800 26008KT P6SM SCT012
     FM022100 27015KT P6SM FEW012
     FM030300 27010KT P6SM SCT012=

USA.gov is the U.S. government's official web portal to all federal, state and local government web resources and services.